Time;durP1;ratioP1;P1;durP2;ratioP2;P2;SDS_P1;SDS_P2;PMS_P1;PMS_P2;Temp;Humidity;BMP_temperature;BMP_pressure;BME280_temperature;BME280_humidity;BME280_pressure;Samples;Min_cycle;Max_cycle;Signal;HPM_P1;HPM_P2
2023/05/06 00:01:19;;;;;;;7.05;4.82;;;;;;;12.04;100.00;101569.41;4992614;28;20137;-72
2023/05/06 00:03:45;;;;;;;6.63;4.95;;;;;;;11.97;100.00;101574.25;4986385;28;20300;-73
2023/05/06 00:06:10;;;;;;;7.05;5.70;;;;;;;12.08;100.00;101566.47;4983902;28;20121;-73
2023/05/06 00:08:36;;;;;;;13.07;7.47;;;;;;;12.06;100.00;101578.22;4981110;28;20038;-73
2023/05/06 00:11:02;;;;;;;5.85;4.82;;;;;;;11.99;100.00;101576.84;4989529;28;20074;-73
2023/05/06 00:13:27;;;;;;;129.50;9.63;;;;;;;11.75;100.00;101579.09;4980062;28;20284;-73
2023/05/06 00:15:56;;;;;;;31.60;3.58;;;;;;;11.73;100.00;101575.63;5000290;28;20041;-72
2023/05/06 00:18:22;;;;;;;19.58;4.38;;;;;;;11.68;100.00;101581.22;4989289;28;20049;-72
2023/05/06 00:20:49;;;;;;;48.05;7.13;;;;;;;11.61;100.00;101575.38;4995939;28;20125;-73
2023/05/06 00:23:15;;;;;;;107.43;8.55;;;;;;;11.55;100.00;101572.19;4984256;28;20035;-74
2023/05/06 00:25:41;;;;;;;198.18;12.73;;;;;;;11.59;100.00;101566.56;4983285;28;20382;-74
2023/05/06 00:28:12;;;;;;;52.28;9.55;;;;;;;11.65;100.00;101568.03;4987731;28;20049;-74
2023/05/06 00:30:42;;;;;;;;;;;;;;;11.63;100.00;101564.59;4988228;28;20042;-74
2023/05/06 00:33:07;;;;;;;153.70;11.80;;;;;;;11.62;100.00;101570.88;5007444;28;19924;-73
2023/05/06 00:35:33;;;;;;;12.52;7.10;;;;;;;11.67;100.00;101572.34;4990050;28;20026;-73
2023/05/06 00:38:10;;;;;;;11.13;6.72;;;;;;;11.75;100.00;101566.56;4986264;28;20807;-74
2023/05/06 00:40:38;;;;;;;74.95;9.70;;;;;;;11.72;100.00;101568.56;4982341;28;20035;-74
2023/05/06 00:43:05;;;;;;;11.15;7.55;;;;;;;11.86;100.00;101563.31;4983842;28;20133;-71
2023/05/06 00:45:31;;;;;;;13.18;8.75;;;;;;;11.87;100.00;101571.25;4989560;28;20070;-73
2023/05/06 00:47:58;;;;;;;12.60;8.40;;;;;;;11.87;100.00;101571.25;4987768;28;20066;-73
2023/05/06 00:50:27;;;;;;;11.45;8.15;;;;;;;11.90;100.00;101576.44;4986439;28;20037;-73
2023/05/06 00:52:55;;;;;;;8.88;6.53;;;;;;;11.90;100.00;101573.75;4982410;28;20086;-73
2023/05/06 00:55:21;;;;;;;7.15;5.90;;;;;;;12.02;100.00;101576.66;4989810;28;20039;-73
2023/05/06 00:57:50;;;;;;;9.10;6.95;;;;;;;12.03;100.00;101568.53;4985386;28;20042;-72
2023/05/06 01:00:19;;;;;;;8.65;6.60;;;;;;;12.10;100.00;101571.75;4982863;28;20034;-73
2023/05/06 01:02:46;;;;;;;7.88;6.80;;;;;;;12.09;100.00;101568.19;4995252;28;20038;-73
2023/05/06 01:05:12;;;;;;;8.40;6.55;;;;;;;12.15;100.00;101561.66;4979807;28;20087;-73
2023/05/06 01:08:05;;;;;;;10.52;6.03;;;;;;;12.15;100.00;101559.84;4980510;28;20042;-72
2023/05/06 01:10:44;;;;;;;12.02;8.82;;;;;;;12.25;100.00;101561.94;4973800;28;20030;-73
2023/05/06 01:13:29;;;;;;;13.43;9.48;;;;;;;12.31;100.00;101565.13;4983899;28;20087;-73
2023/05/06 01:15:59;;;;;;;20.40;12.05;;;;;;;12.31;100.00;101557.13;4986328;28;20174;-73
2023/05/06 01:18:31;;;;;;;26.50;16.73;;;;;;;12.15;100.00;101554.47;4984498;28;20093;-73
2023/05/06 01:20:58;;;;;;;24.58;15.52;;;;;;;12.22;100.00;101556.78;4980418;28;20070;-73
2023/05/06 01:23:26;;;;;;;24.58;15.65;;;;;;;12.22;100.00;101560.31;4985391;28;20043;-73
2023/05/06 01:25:51;;;;;;;31.25;18.15;;;;;;;12.16;100.00;101560.69;4986500;28;20102;-72
2023/05/06 01:28:17;;;;;;;25.38;16.95;;;;;;;12.19;100.00;101558.69;4978401;28;20046;-73
2023/05/06 01:31:05;;;;;;;26.08;16.58;;;;;;;12.22;100.00;101559.47;4984413;28;20905;-73
2023/05/06 01:33:42;;;;;;;25.55;16.98;;;;;;;12.29;100.00;101555.47;4973293;28;20066;-73
2023/05/06 01:36:20;;;;;;;25.80;14.77;;;;;;;12.32;100.00;101552.63;4981348;28;20027;-73
2023/05/06 01:38:56;;;;;;;25.33;16.52;;;;;;;12.27;100.00;101560.06;4979961;28;20482;-72
2023/05/06 01:41:24;;;;;;;21.48;12.68;;;;;;;12.28;100.00;101556.41;4983475;28;20528;-72
2023/05/06 01:43:52;;;;;;;22.80;15.27;;;;;;;12.29;100.00;101555.47;4985592;28;20047;-74
2023/05/06 01:46:19;;;;;;;23.30;14.02;;;;;;;12.22;100.00;101548.78;4978759;28;20846;-73
2023/05/06 01:48:45;;;;;;;39.50;22.10;;;;;;;12.10;100.00;101553.03;4973206;28;20484;-72
2023/05/06 01:51:14;;;;;;;40.55;21.05;;;;;;;12.03;100.00;101551.66;4992133;28;20074;-73
2023/05/06 01:53:40;;;;;;;29.33;19.27;;;;;;;12.22;100.00;101565.66;4984023;28;20027;-73
2023/05/06 01:56:06;;;;;;;33.55;21.15;;;;;;;12.28;100.00;101559.94;4980828;28;20039;-72
2023/05/06 01:58:32;;;;;;;22.98;16.42;;;;;;;12.39;100.00;101549.47;4981166;28;20130;-73
2023/05/06 02:00:57;;;;;;;29.52;18.52;;;;;;;12.48;100.00;101553.44;4985620;28;20039;-73
2023/05/06 02:03:23;;;;;;;31.77;18.85;;;;;;;12.49;100.00;101549.78;4985871;28;20055;-73
2023/05/06 02:05:49;;;;;;;28.15;18.55;;;;;;;12.42;100.00;101546.63;4980981;28;20067;-73
2023/05/06 02:08:15;;;;;;;29.25;18.75;;;;;;;12.38;100.00;101550.44;4981161;28;20078;-73
2023/05/06 02:10:41;;;;;;;30.10;19.23;;;;;;;12.32;100.00;101549.94;4997727;28;20034;-73
2023/05/06 02:13:12;;;;;;;27.30;18.20;;;;;;;12.18;100.00;101546.25;4991121;28;20034;-73
2023/05/06 02:15:37;;;;;;;26.48;17.33;;;;;;;12.11;100.00;101555.59;4991616;28;20066;-72
2023/05/06 02:18:07;;;;;;;34.15;21.63;;;;;;;11.94;100.00;101553.03;4995788;28;20043;-73
2023/05/06 02:20:37;;;;;;;35.22;21.38;;;;;;;11.99;100.00;101560.78;4987056;28;20041;-72
2023/05/06 02:23:03;;;;;;;28.75;18.73;;;;;;;11.97;100.00;101560.03;4985923;28;20980;-72
2023/05/06 02:25:28;;;;;;;27.52;18.50;;;;;;;11.90;100.00;101556.88;4986243;28;20087;-74
2023/05/06 02:27:54;;;;;;;27.10;18.42;;;;;;;11.81;100.00;101554.69;4985505;28;20046;-73
2023/05/06 02:30:20;;;;;;;26.48;17.80;;;;;;;11.76;100.00;101551.41;4984185;28;20031;-73
2023/05/06 02:32:45;;;;;;;24.42;16.98;;;;;;;11.68;100.00;101547.34;4981745;28;20039;-73
2023/05/06 02:35:11;;;;;;;32.05;17.65;;;;;;;11.60;100.00;101557.63;4985666;28;20047;-73
2023/05/06 02:37:42;;;;;;;33.25;14.93;;;;;;;11.48;100.00;101554.75;4991436;28;20050;-73
2023/05/06 02:40:12;;;;;;;16.70;10.70;;;;;;;11.43;100.00;101544.31;4974656;28;20074;-73
2023/05/06 02:42:38;;;;;;;15.70;10.98;;;;;;;11.44;100.00;101553.19;4990431;28;20031;-73
2023/05/06 02:45:05;;;;;;;19.05;12.70;;;;;;;11.41;100.00;101555.09;4986331;28;20133;-72
2023/05/06 02:47:31;;;;;;;236.98;27.20;;;;;;;11.39;100.00;101546.28;4993118;28;20055;-72
2023/05/06 02:49:59;;;;;;;238.45;24.63;;;;;;;11.40;100.00;101550.72;4993414;28;20038;-73
2023/05/06 02:52:24;;;;;;;23.67;15.00;;;;;;;11.33;100.00;101548.44;4987425;28;20145;-72
2023/05/06 02:54:51;;;;;;;22.23;15.70;;;;;;;11.31;100.00;101550.34;4983645;28;20568;-72
2023/05/06 02:57:20;;;;;;;20.20;14.60;;;;;;;11.30;100.00;101545.97;4988487;28;20030;-73
2023/05/06 02:59:46;;;;;;;20.50;15.32;;;;;;;11.29;100.00;101541.56;4979928;28;20039;-72
2023/05/06 03:02:11;;;;;;;23.00;14.98;;;;;;;11.28;100.00;101548.69;4983000;28;20061;-72
2023/05/06 03:04:37;;;;;;;21.63;13.75;;;;;;;11.27;100.00;101543.47;4988406;28;20039;-74
2023/05/06 03:07:03;;;;;;;18.80;13.40;;;;;;;11.25;100.00;101546.22;4988569;28;20070;-72
2023/05/06 03:09:28;;;;;;;18.25;13.43;;;;;;;11.18;100.00;101541.28;4985229;28;20034;-72
2023/05/06 03:11:56;;;;;;;17.13;11.82;;;;;;;11.14;100.00;101544.16;5002501;28;20492;-73
2023/05/06 03:14:21;;;;;;;14.52;10.18;;;;;;;11.09;100.00;101543.53;4985703;28;20038;-73
2023/05/06 03:16:48;;;;;;;16.50;10.75;;;;;;;11.05;100.00;101544.63;5001700;28;20042;-73
2023/05/06 03:19:17;;;;;;;37.08;12.30;;;;;;;11.05;100.00;101546.44;4980528;28;20031;-73
2023/05/06 03:21:43;;;;;;;12.27;8.70;;;;;;;10.97;100.00;101549.50;4985324;28;20042;-72
2023/05/06 03:24:10;;;;;;;56.55;10.73;;;;;;;10.95;100.00;101554.09;4990907;28;20284;-73
2023/05/06 03:26:36;;;;;;;147.70;14.68;;;;;;;10.77;100.00;101555.91;4991966;28;20034;-73
2023/05/06 03:29:02;;;;;;;83.05;12.95;;;;;;;10.73;100.00;101561.47;4987833;28;20038;-73
2023/05/06 03:31:28;;;;;;;159.00;13.30;;;;;;;10.69;100.00;101552.78;4971942;28;20925;-72
2023/05/06 03:33:58;;;;;;;215.85;15.57;;;;;;;10.67;100.00;101548.47;4986338;28;20081;-73
2023/05/06 03:36:24;;;;;;;31.25;9.63;;;;;;;10.71;100.00;101547.38;4992131;28;20035;-72
2023/05/06 03:38:52;;;;;;;60.40;11.93;;;;;;;10.78;100.00;101544.28;4984546;28;20168;-72
2023/05/06 03:41:18;;;;;;;164.15;16.85;;;;;;;10.78;100.00;101551.44;4990127;28;20801;-72
2023/05/06 03:43:44;;;;;;;152.93;13.48;;;;;;;10.71;100.00;101545.56;4977591;28;20050;-73
2023/05/06 03:46:11;;;;;;;187.68;15.55;;;;;;;10.54;100.00;101545.56;4994457;28;20051;-73
2023/05/06 03:48:41;;;;;;;226.70;19.75;;;;;;;10.73;100.00;101541.00;4979049;28;20062;-72
2023/05/06 03:51:13;;;;;;;181.35;20.10;;;;;;;10.81;100.00;101548.63;4980478;28;20102;-72
2023/05/06 03:53:40;;;;;;;227.32;19.48;;;;;;;10.78;100.00;101549.63;4991208;28;20034;-73
2023/05/06 03:56:06;;;;;;;384.98;28.75;;;;;;;10.81;100.00;101554.81;4982457;28;20459;-72
2023/05/06 03:58:34;;;;;;;414.25;28.02;;;;;;;10.85;100.00;101552.84;4994760;28;20038;-73
2023/05/06 04:01:03;;;;;;;268.85;22.52;;;;;;;10.78;100.00;101551.44;4972563;28;20034;-72
2023/05/06 04:03:29;;;;;;;179.98;17.15;;;;;;;10.81;100.00;101545.94;4990671;28;20058;-74
2023/05/06 04:05:56;;;;;;;147.40;17.50;;;;;;;10.86;100.00;101558.09;4984909;28;20047;-72
2023/05/06 04:08:26;;;;;;;156.45;16.60;;;;;;;10.87;100.00;101549.13;4994324;28;20174;-74
2023/05/06 04:10:54;;;;;;;180.13;15.07;;;;;;;10.83;100.00;101549.38;4990996;28;20179;-72
2023/05/06 04:13:29;;;;;;;230.50;16.20;;;;;;;10.79;100.00;101545.16;4985109;28;20042;-73
2023/05/06 04:15:57;;;;;;;169.20;13.80;;;;;;;10.80;100.00;101544.22;4979309;28;20305;-73
2023/05/06 04:18:28;;;;;;;270.27;16.75;;;;;;;10.77;100.00;101549.72;4989097;28;20038;-72
2023/05/06 04:20:59;;;;;;;172.55;15.15;;;;;;;10.79;100.00;101558.50;4980117;28;20045;-73
2023/05/06 04:23:29;;;;;;;156.15;15.38;;;;;;;10.83;100.00;101554.72;4987417;28;20039;-73
2023/05/06 04:25:56;;;;;;;98.57;16.67;;;;;;;10.99;100.00;101558.28;4999214;28;21145;-73
2023/05/06 04:28:24;;;;;;;54.65;12.15;;;;;;;11.03;100.00;101562.53;4987711;28;20027;-73
2023/05/06 04:30:51;;;;;;;106.95;16.70;;;;;;;11.07;100.00;101560.56;4994915;28;20094;-72
2023/05/06 04:33:19;;;;;;;128.48;13.82;;;;;;;11.02;100.00;101559.94;4994436;28;20034;-74
2023/05/06 04:35:58;;;;;;;132.48;12.55;;;;;;;10.99;100.00;101560.94;4974578;28;20492;-73
2023/05/06 04:38:29;;;;;;;82.72;11.75;;;;;;;11.05;100.00;101568.66;4979802;28;20035;-72
2023/05/06 04:40:59;;;;;;;174.93;15.75;;;;;;;11.22;100.00;101559.72;4984707;28;20137;-73
2023/05/06 04:43:26;;;;;;;152.80;15.23;;;;;;;11.33;100.00;101562.66;4980066;28;20035;-74
2023/05/06 04:45:59;;;;;;;233.82;18.73;;;;;;;11.43;100.00;101549.66;4968201;28;20066;-73
2023/05/06 04:48:28;;;;;;;174.23;16.58;;;;;;;11.70;100.00;101565.97;4996457;28;20049;-72
2023/05/06 04:50:57;;;;;;;184.95;21.08;;;;;;;11.86;100.00;101557.97;4984777;28;20114;-74
2023/05/06 04:53:29;;;;;;;157.85;19.27;;;;;;;11.99;100.00;101566.13;4985573;28;20476;-71
2023/05/06 04:55:55;;;;;;;;;;;;;;;12.15;100.00;101567.00;4989519;28;20067;-73
2023/05/06 04:58:21;;;;;;;93.80;15.73;;;;;;;12.35;100.00;101568.47;4986348;28;19914;-72
2023/05/06 05:00:47;;;;;;;139.48;17.48;;;;;;;12.33;100.00;101573.06;4981834;28;20146;-72
2023/05/06 05:03:13;;;;;;;58.22;14.18;;;;;;;12.45;100.00;101569.69;4999994;28;20101;-73
2023/05/06 05:05:39;;;;;;;88.15;15.13;;;;;;;12.70;100.00;101572.59;4999474;28;20575;-73
2023/05/06 05:08:12;;;;;;;38.53;13.05;;;;;;;13.06;100.00;101571.28;4998785;28;20039;-72
2023/05/06 05:10:42;;;;;;;45.55;14.27;;;;;;;13.60;100.00;101568.78;4997244;28;20042;-73
2023/05/06 05:13:12;;;;;;;41.10;13.18;;;;;;;13.90;100.00;101568.59;4997872;28;20035;-72
2023/05/06 05:15:39;;;;;;;26.10;12.02;;;;;;;14.20;100.00;101562.16;4993136;28;20066;-73
2023/05/06 05:18:08;;;;;;;22.08;11.77;;;;;;;14.61;100.00;101575.50;4996097;28;20078;-73
2023/05/06 05:20:34;;;;;;;12.75;11.43;;;;;;;15.18;100.00;101577.78;4988157;28;20091;-72
2023/05/06 05:23:03;;;;;;;29.35;13.55;;;;;;;15.52;100.00;101573.53;4997918;28;20039;-72
2023/05/06 05:25:29;;;;;;;16.77;12.65;;;;;;;16.01;100.00;101572.66;4985439;28;20047;-73
2023/05/06 05:27:58;;;;;;;17.92;13.70;;;;;;;16.42;100.00;101579.44;4987805;28;20556;-74
2023/05/06 05:30:28;;;;;;;15.82;12.85;;;;;;;16.11;100.00;101580.00;4991301;28;20105;-73
2023/05/06 05:32:54;;;;;;;13.32;11.95;;;;;;;16.11;100.00;101578.19;4983349;28;20040;-73
2023/05/06 05:35:25;;;;;;;18.15;14.07;;;;;;;16.12;100.00;101579.06;4992464;28;20043;-72
2023/05/06 05:37:52;;;;;;;14.90;12.65;;;;;;;16.12;100.00;101571.84;4981185;28;20045;-73
2023/05/06 05:40:18;;;;;;;13.95;12.18;;;;;;;16.42;100.00;101573.19;5003728;28;20046;-74
2023/05/06 05:42:47;;;;;;;14.05;12.05;;;;;;;16.66;100.00;101575.81;4988086;28;20049;-73
2023/05/06 05:45:22;;;;;;;15.38;13.05;;;;;;;16.93;100.00;101583.63;4985682;28;20138;-73
2023/05/06 05:47:49;;;;;;;17.35;13.35;;;;;;;16.90;100.00;101576.63;4981211;28;20066;-73
2023/05/06 05:50:15;;;;;;;14.85;12.38;;;;;;;17.29;100.00;101572.63;4989892;28;20035;-73
2023/05/06 05:52:42;;;;;;;17.98;14.68;;;;;;;17.45;100.00;101569.56;4987023;28;20117;-73
2023/05/06 05:55:08;;;;;;;18.40;15.15;;;;;;;17.89;100.00;101580.44;4987871;28;20039;-74
2023/05/06 05:57:36;;;;;;;21.98;16.02;;;;;;;18.13;99.54;101574.84;4975155;28;20082;-73
2023/05/06 06:00:03;;;;;;;20.75;17.40;;;;;;;17.90;97.69;101579.44;4983957;28;20046;-73
2023/05/06 06:02:33;;;;;;;17.10;14.75;;;;;;;18.30;99.96;101576.97;4991435;28;20069;-74
2023/05/06 06:04:58;;;;;;;20.80;16.77;;;;;;;18.17;99.13;101573.59;4985703;28;20053;-73
2023/05/06 06:07:24;;;;;;;21.67;17.42;;;;;;;18.51;99.94;101571.59;4983125;28;20042;-73
2023/05/06 06:09:50;;;;;;;22.70;17.98;;;;;;;18.56;99.00;101581.03;4986728;28;20039;-74
2023/05/06 06:12:16;;;;;;;24.27;19.90;;;;;;;18.42;99.26;101578.63;4999380;28;20034;-72
2023/05/06 06:14:47;;;;;;;23.73;19.23;;;;;;;18.77;97.95;101572.94;4978891;28;20129;-73
2023/05/06 06:17:16;;;;;;;24.02;18.85;;;;;;;18.83;99.38;101572.44;4985430;28;20026;-74
2023/05/06 06:19:45;;;;;;;26.02;18.98;;;;;;;19.06;98.07;101574.97;4984235;28;20037;-72
2023/05/06 06:22:12;;;;;;;23.45;17.88;;;;;;;19.30;97.22;101574.66;4986410;28;20209;-73
2023/05/06 06:24:37;;;;;;;22.20;18.75;;;;;;;18.92;95.54;101575.31;4993645;28;20100;-72
2023/05/06 06:27:03;;;;;;;21.80;17.67;;;;;;;19.48;93.83;101573.03;4990161;28;20433;-73
2023/05/06 06:29:29;;;;;;;20.90;17.17;;;;;;;19.69;95.34;101574.84;4979680;28;20043;-74
2023/05/06 06:31:54;;;;;;;20.75;16.75;;;;;;;19.59;91.42;101574.78;4989232;28;20149;-73
2023/05/06 06:34:27;;;;;;;23.73;17.77;;;;;;;19.64;91.12;101573.41;4979851;28;20043;-73
2023/05/06 06:36:53;;;;;;;21.20;17.88;;;;;;;19.99;89.96;101582.88;4984087;28;20035;-74
2023/05/06 06:39:19;;;;;;;22.90;17.08;;;;;;;19.99;94.29;101579.31;4980500;28;20137;-73
2023/05/06 06:41:45;;;;;;;21.30;17.83;;;;;;;20.19;89.52;101575.63;4984555;28;20934;-73
2023/05/06 06:44:10;;;;;;;20.95;17.60;;;;;;;20.64;87.13;101581.34;4985396;28;20046;-73
2023/05/06 06:46:36;;;;;;;20.52;17.85;;;;;;;20.69;89.07;101583.63;4989633;28;20077;-73
2023/05/06 06:49:02;;;;;;;22.17;16.58;;;;;;;20.80;83.32;101585.31;4987735;28;20113;-73
2023/05/06 06:51:27;;;;;;;22.70;16.58;;;;;;;20.49;83.94;101580.09;4989788;28;20058;-73
2023/05/06 06:53:53;;;;;;;21.13;16.17;;;;;;;20.52;85.63;101592.47;4975535;28;20042;-74
2023/05/06 06:56:19;;;;;;;19.88;15.98;;;;;;;20.58;85.51;101584.66;4975439;28;20145;-74
2023/05/06 06:58:44;;;;;;;19.52;15.23;;;;;;;20.19;87.06;101589.19;4977393;28;20128;-73
2023/05/06 07:01:10;;;;;;;21.55;16.90;;;;;;;20.29;87.67;101584.63;4985409;28;20042;-72
2023/05/06 07:03:36;;;;;;;20.65;16.27;;;;;;;19.60;87.62;101587.34;4986055;28;20042;-73
2023/05/06 07:06:01;;;;;;;21.27;16.85;;;;;;;20.02;90.38;101593.41;4973392;28;20556;-72
2023/05/06 07:08:27;;;;;;;21.02;15.90;;;;;;;20.07;87.41;101593.00;4973670;28;20038;-70
2023/05/06 07:10:54;;;;;;;23.83;16.45;;;;;;;19.74;86.50;101594.22;4980342;28;20043;-72
2023/05/06 07:13:22;;;;;;;22.60;17.08;;;;;;;20.13;87.59;101585.19;4976778;28;20092;-72
2023/05/06 07:15:48;;;;;;;22.02;16.42;;;;;;;20.12;86.22;101585.31;4990815;28;20314;-72
2023/05/06 07:18:13;;;;;;;19.00;15.52;;;;;;;19.90;86.49;101592.69;4980505;28;20073;-72
2023/05/06 07:20:39;;;;;;;19.42;15.55;;;;;;;20.11;87.34;101589.88;4974493;28;20037;-73
2023/05/06 07:23:07;;;;;;;21.13;15.60;;;;;;;20.54;87.24;101590.50;4993313;28;20034;-73
2023/05/06 07:25:34;;;;;;;20.88;15.68;;;;;;;20.53;84.98;101595.03;4978523;28;20193;-72
2023/05/06 07:27:59;;;;;;;21.95;15.93;;;;;;;20.15;83.79;101596.72;4985468;28;20030;-72
2023/05/06 07:30:25;;;;;;;23.10;17.95;;;;;;;19.94;88.70;101598.69;4981785;28;20516;-72
2023/05/06 07:32:52;;;;;;;20.00;15.65;;;;;;;20.10;88.79;101592.72;4981668;28;21236;-70
2023/05/06 07:35:18;;;;;;;24.90;17.10;;;;;;;20.33;87.60;101596.88;4982240;28;20031;-71
2023/05/06 07:37:46;;;;;;;19.02;16.52;;;;;;;20.43;85.55;101595.03;4981242;28;20030;-70
2023/05/06 07:40:12;;;;;;;20.83;17.02;;;;;;;20.79;86.45;101598.03;4978732;28;20046;-71
2023/05/06 07:42:39;;;;;;;19.98;16.50;;;;;;;20.56;85.19;101594.75;4974047;28;20035;-72
2023/05/06 07:45:06;;;;;;;18.67;15.75;;;;;;;20.39;87.50;101603.59;4980330;28;21107;-71
2023/05/06 07:47:32;;;;;;;21.98;16.73;;;;;;;20.50;88.04;101591.78;4975558;28;20055;-71
2023/05/06 07:49:59;;;;;;;22.92;16.75;;;;;;;20.13;89.90;101592.41;4980173;28;20043;-72
2023/05/06 07:52:26;;;;;;;20.65;16.77;;;;;;;20.39;87.85;101588.19;4973636;28;20043;-71
2023/05/06 07:54:56;;;;;;;21.58;15.05;;;;;;;19.72;91.27;101596.19;4988897;28;20101;-72
2023/05/06 07:57:22;;;;;;;23.17;16.20;;;;;;;19.54;90.73;101598.69;4983351;28;20038;-71
2023/05/06 07:59:49;;;;;;;22.73;16.00;;;;;;;19.62;91.79;101607.00;4987245;28;20046;-72
2023/05/06 08:02:15;;;;;;;20.42;16.15;;;;;;;19.84;90.39;101605.94;4985872;28;20042;-73
2023/05/06 08:04:41;;;;;;;20.55;15.93;;;;;;;20.23;89.13;101605.97;4978718;28;20863;-72
2023/05/06 08:07:09;;;;;;;20.35;15.50;;;;;;;21.00;87.21;101615.97;4967730;28;20050;-72
2023/05/06 08:09:35;;;;;;;21.48;15.07;;;;;;;21.28;82.28;101609.56;4970498;28;20026;-73
2023/05/06 08:12:04;;;;;;;28.02;16.55;;;;;;;21.64;80.75;101615.22;4980915;28;20576;-71
2023/05/06 08:14:30;;;;;;;20.10;15.13;;;;;;;21.96;78.92;101607.44;4962014;28;20595;-70
2023/05/06 08:16:59;;;;;;;22.85;15.80;;;;;;;21.98;76.94;101605.41;4984596;28;20045;-71
2023/05/06 08:19:25;;;;;;;20.48;15.80;;;;;;;21.91;77.60;101614.34;4979702;28;20090;-72
2023/05/06 08:21:54;;;;;;;22.02;16.20;;;;;;;22.13;77.24;101611.19;4982930;28;20122;-72
2023/05/06 08:24:19;;;;;;;23.65;15.45;;;;;;;21.12;80.44;101623.75;4979995;28;20066;-72
2023/05/06 08:26:45;;;;;;;22.27;15.25;;;;;;;21.64;78.50;101626.91;4983499;28;20034;-75
2023/05/06 08:29:12;;;;;;;18.60;14.68;;;;;;;21.91;79.01;101615.19;4987461;28;20034;-71
2023/05/06 08:31:38;;;;;;;22.30;16.45;;;;;;;21.19;79.33;101624.06;4981911;28;20039;-73
2023/05/06 08:34:06;;;;;;;21.13;16.20;;;;;;;21.03;80.18;101623.78;4984703;28;20038;-74
2023/05/06 08:36:32;;;;;;;20.75;15.25;;;;;;;20.91;84.06;101617.69;4986552;28;20045;-74
2023/05/06 08:38:57;;;;;;;18.63;14.38;;;;;;;20.87;81.56;101619.81;4985512;28;20144;-73
2023/05/06 08:41:28;;;;;;;19.42;14.52;;;;;;;20.68;84.33;101628.84;4989489;28;20050;-74
2023/05/06 08:43:58;;;;;;;20.33;15.85;;;;;;;21.48;82.72;101628.53;5001618;28;20098;-73
2023/05/06 08:46:26;;;;;;;22.70;14.93;;;;;;;20.54;86.69;101620.31;4969299;28;20105;-74
2023/05/06 08:48:52;;;;;;;18.70;14.50;;;;;;;21.04;83.57;101622.81;4982192;28;20034;-73
2023/05/06 08:51:24;;;;;;;16.70;13.30;;;;;;;21.68;77.20;101614.72;4985037;28;20449;-71
2023/05/06 08:53:51;;;;;;;19.50;14.02;;;;;;;21.56;81.87;101606.94;4976509;28;20050;-73
2023/05/06 08:56:17;;;;;;;20.92;14.57;;;;;;;21.08;84.55;101616.06;4977797;28;20035;-73
2023/05/06 08:58:47;;;;;;;20.20;13.68;;;;;;;21.36;78.04;101611.59;4986770;28;20134;-74
2023/05/06 09:01:14;;;;;;;18.20;12.80;;;;;;;20.84;79.19;101624.69;4981386;28;20050;-73
2023/05/06 09:03:42;;;;;;;15.52;13.13;;;;;;;20.34;88.72;101611.28;4980568;28;20102;-74
2023/05/06 09:06:09;;;;;;;20.70;13.95;;;;;;;21.51;83.41;101618.25;4981569;28;20121;-73
2023/05/06 09:08:35;;;;;;;18.50;13.45;;;;;;;22.03;80.73;101607.66;4980069;28;20512;-74
2023/05/06 09:11:01;;;;;;;18.90;14.00;;;;;;;22.38;78.50;101603.28;4990346;28;20050;-72
2023/05/06 09:13:26;;;;;;;18.55;12.73;;;;;;;22.01;76.03;101611.56;4982712;28;20034;-73
2023/05/06 09:15:54;;;;;;;20.58;13.82;;;;;;;22.53;74.00;101603.59;4973946;28;20045;-73
2023/05/06 09:18:21;;;;;;;19.00;13.48;;;;;;;21.67;78.16;101612.16;5000607;28;21065;-72
2023/05/06 09:20:47;;;;;;;22.85;12.60;;;;;;;22.17;78.55;101609.03;4991498;28;20043;-72
2023/05/06 09:23:15;;;;;;;17.88;11.23;;;;;;;22.54;73.84;101603.47;4979305;28;20043;-73
2023/05/06 09:25:43;;;;;;;14.07;10.55;;;;;;;22.07;74.65;101600.91;4981866;28;20141;-72
2023/05/06 09:28:11;;;;;;;16.63;11.02;;;;;;;21.80;72.61;101593.69;4979120;28;20041;-73
2023/05/06 09:30:41;;;;;;;18.63;11.48;;;;;;;22.62;71.91;101595.34;4985220;28;20030;-72
2023/05/06 09:33:07;;;;;;;14.88;11.10;;;;;;;21.57;74.07;101592.38;4991909;28;20069;-72
2023/05/06 09:35:42;;;;;;;16.63;11.20;;;;;;;22.49;74.73;101579.47;4985351;28;20132;-72
2023/05/06 09:38:11;;;;;;;21.35;10.50;;;;;;;22.32;72.04;101588.47;4987440;28;20337;-73
2023/05/06 09:40:37;;;;;;;14.20;10.05;;;;;;;22.04;76.71;101584.06;4976595;28;20527;-72
2023/05/06 09:43:03;;;;;;;13.50;9.55;;;;;;;22.27;73.92;101585.38;4984125;28;20073;-71
2023/05/06 09:45:29;;;;;;;13.95;10.18;;;;;;;22.11;71.17;101574.34;4980406;28;20681;-72
2023/05/06 09:47:58;;;;;;;16.95;9.93;;;;;;;21.90;70.54;101575.47;4989203;28;20137;-73
2023/05/06 09:50:27;;;;;;;17.17;10.38;;;;;;;22.27;73.46;101576.38;4986079;28;20045;-73
2023/05/06 09:52:58;;;;;;;13.68;8.85;;;;;;;22.50;69.85;101577.59;4985980;28;20157;-72
2023/05/06 09:55:25;;;;;;;9.82;6.80;;;;;;;22.25;68.01;101570.25;4986271;28;20039;-72
2023/05/06 09:57:58;;;;;;;11.35;7.72;;;;;;;22.72;66.70;101573.50;4980847;28;20049;-71
2023/05/06 10:00:26;;;;;;;12.60;7.75;;;;;;;23.14;64.89;101565.47;4984629;28;20035;-72
2023/05/06 10:02:54;;;;;;;15.18;8.73;;;;;;;22.99;67.45;101565.25;4969249;28;20034;-73
2023/05/06 10:05:21;;;;;;;16.65;8.35;;;;;;;22.66;65.41;101558.69;4987647;28;20093;-73
2023/05/06 10:07:48;;;;;;;10.30;6.82;;;;;;;22.56;64.34;101563.38;4140287;28;10000378;-72
2023/05/06 10:10:17;;;;;;;14.00;7.20;;;;;;;22.39;64.81;101564.22;5025029;28;20041;-73
2023/05/06 10:12:43;;;;;;;10.52;7.85;;;;;;;21.83;67.13;101568.06;5022302;28;20049;-72
2023/05/06 10:15:09;;;;;;;12.25;8.20;;;;;;;22.27;68.76;101569.06;5020731;28;20065;-73
2023/05/06 10:17:39;;;;;;;11.88;7.57;;;;;;;23.21;67.35;101572.00;5022827;28;20109;-73
2023/05/06 10:20:08;;;;;;;12.98;7.28;;;;;;;22.60;63.95;101572.06;5016356;28;20034;-72
2023/05/06 10:22:39;;;;;;;9.45;6.32;;;;;;;22.60;60.25;101563.91;5002121;28;20042;-74
2023/05/06 10:25:32;;;;;;;11.10;6.50;;;;;;;23.07;62.13;101563.59;5018018;28;20046;-73
2023/05/06 10:28:00;;;;;;;11.52;7.30;;;;;;;21.81;64.21;101562.78;5007401;28;20053;-73
2023/05/06 10:30:27;;;;;;;12.88;7.72;;;;;;;22.04;65.36;101568.66;5015338;28;20093;-73
2023/05/06 10:33:02;;;;;;;9.88;7.50;;;;;;;23.17;62.74;101559.72;5021964;28;20144;-72
2023/05/06 10:35:42;;;;;;;10.77;7.10;;;;;;;22.96;61.17;101551.97;5018141;28;20041;-72
2023/05/06 10:38:16;;;;;;;10.05;7.10;;;;;;;22.91;60.93;101553.47;4981614;28;20041;-72
2023/05/06 10:40:43;;;;;;;9.95;6.57;;;;;;;22.40;62.23;101558.66;4985755;28;20045;-73
2023/05/06 10:43:28;;;;;;;7.85;6.82;;;;;;;23.19;60.16;101556.84;4976246;28;20132;-73
2023/05/06 10:46:07;;;;;;;10.07;7.28;;;;;;;22.84;60.83;101544.19;4980382;28;20030;-73
2023/05/06 10:48:36;;;;;;;15.65;7.10;;;;;;;22.14;62.59;101553.16;4978278;28;20049;-73
2023/05/06 10:51:22;;;;;;;10.18;6.68;;;;;;;22.65;63.14;101550.69;4995737;28;20026;-73
2023/05/06 10:54:06;;;;;;;15.43;7.50;;;;;;;23.09;61.81;101545.22;4983878;28;20410;-72
2023/05/06 10:56:39;;;;;;;12.65;8.05;;;;;;;23.15;61.30;101540.00;4983890;28;20180;-72
2023/05/06 10:59:07;;;;;;;10.55;8.02;;;;;;;23.14;61.52;101543.72;4985912;28;21061;-72
2023/05/06 11:01:34;;;;;;;11.32;7.63;;;;;;;22.73;60.75;101539.88;4980900;28;20045;-71
2023/05/06 11:04:10;;;;;;;11.70;6.97;;;;;;;23.91;59.01;101538.25;4983491;28;20038;-71
2023/05/06 11:06:45;;;;;;;8.27;6.13;;;;;;;24.17;57.81;101525.34;4981939;28;20073;-71
2023/05/06 11:09:22;;;;;;;9.77;6.60;;;;;;;24.51;59.03;101527.94;4986541;28;20034;-72
2023/05/06 11:12:03;;;;;;;10.23;5.97;;;;;;;23.61;54.91;101528.78;4976536;28;20116;-71